createdAt,value
2017-11-16T00:00:31.151Z,0
2017-11-16T00:01:31.423Z,0
2017-11-16T00:02:30.577Z,0
2017-11-16T00:03:31.372Z,0
2017-11-16T00:04:30.537Z,0
2017-11-16T00:05:30.793Z,0
2017-11-16T00:06:31.054Z,0
2017-11-16T00:07:31.307Z,0
2017-11-16T00:08:31.292Z,0
2017-11-16T00:09:30.993Z,0
2017-11-16T00:10:31.515Z,0
2017-11-16T00:11:30.967Z,0
2017-11-16T00:12:30.409Z,0
2017-11-16T00:13:31.243Z,0
2017-11-16T00:14:31.196Z,0
2017-11-16T00:15:30.356Z,0
2017-11-16T00:16:31.421Z,0
2017-11-16T00:17:30.862Z,0
2017-11-16T00:18:31.109Z,0
2017-11-16T00:19:31.107Z,0
2017-11-16T00:20:30.538Z,0
2017-11-16T00:21:30.792Z,0
2017-11-16T00:22:31.044Z,0
2017-11-16T00:23:30.479Z,0
2017-11-16T00:24:30.745Z,0
2017-11-16T00:25:31.004Z,0
2017-11-16T00:26:30.986Z,0
2017-11-16T00:27:30.699Z,0
2017-11-16T00:28:31.217Z,0
2017-11-16T00:29:30.397Z,0
2017-11-16T00:30:30.672Z,0
2017-11-16T00:31:30.623Z,0
2017-11-16T00:32:30.335Z,0
2017-11-16T00:33:31.145Z,0
2017-11-16T00:34:30.565Z,0
2017-11-16T00:35:30.550Z,0
2017-11-16T00:36:30.267Z,0
2017-11-16T00:37:30.253Z,0
2017-11-16T00:38:29.970Z,0
2017-11-16T00:39:30.486Z,0
2017-11-16T00:40:30.472Z,0
2017-11-16T00:41:30.734Z,0
2017-11-16T00:42:30.165Z,0
2017-11-16T00:43:30.431Z,0
2017-11-16T00:44:30.404Z,0
2017-11-16T00:45:29.840Z,0
2017-11-16T00:46:30.368Z,0
2017-11-16T00:47:30.627Z,0
2017-11-16T00:48:30.593Z,0
2017-11-16T00:49:30.585Z,0
2017-11-16T00:50:30.296Z,0
2017-11-16T00:51:30.277Z,0
2017-11-16T00:52:30.279Z,0
2017-11-16T00:53:29.977Z,0
2017-11-16T00:54:30.556Z,0
2017-11-16T00:55:29.941Z,0
2017-11-16T00:56:30.473Z,0
2017-11-16T00:57:29.904Z,0
2017-11-16T00:58:30.174Z,0
2017-11-16T00:59:30.143Z,0
2017-11-16T01:00:30.393Z,0
2017-11-16T01:01:30.108Z,0
2017-11-16T01:02:30.094Z,0
2017-11-16T01:03:30.076Z,0
2017-11-16T01:04:29.785Z,0
2017-11-16T01:05:29.774Z,0
2017-11-16T01:06:30.029Z,0
2017-11-16T01:07:30.276Z,0
2017-11-16T01:08:30.254Z,0
2017-11-16T01:09:29.708Z,0
2017-11-16T01:10:29.960Z,0
2017-11-16T01:11:29.667Z,0
2017-11-16T01:12:29.919Z,0
2017-11-16T01:13:29.908Z,0
2017-11-16T01:14:29.615Z,0
2017-11-16T01:15:29.876Z,0
2017-11-16T01:16:29.582Z,0
2017-11-16T01:17:29.564Z,0
2017-11-16T01:18:30.092Z,0
2017-11-16T01:19:29.532Z,0
2017-11-16T01:20:29.790Z,0
2017-11-16T01:21:29.500Z,0
2017-11-16T01:22:29.758Z,0
2017-11-16T01:23:29.461Z,0
2017-11-16T01:24:29.447Z,0
2017-11-16T01:25:30.246Z,0
2017-11-16T01:26:29.675Z,0
2017-11-16T01:27:29.942Z,0
2017-11-16T01:28:29.653Z,0
2017-11-16T01:29:30.165Z,0
2017-11-16T01:30:29.333Z,0
2017-11-16T01:31:29.599Z,0
2017-11-16T01:32:30.122Z,0
2017-11-16T01:33:29.562Z,0
2017-11-16T01:34:29.832Z,0
2017-11-16T01:35:29.252Z,0
2017-11-16T01:36:29.786Z,0
2017-11-16T01:37:29.761Z,0
2017-11-16T01:38:29.199Z,0
2017-11-16T01:39:29.459Z,0
2017-11-16T01:40:29.179Z,0
2017-11-16T01:41:29.688Z,0
2017-11-16T01:42:29.672Z,0
2017-11-16T01:43:29.382Z,0
2017-11-16T01:44:29.640Z,0
2017-11-16T01:45:29.667Z,0
2017-11-16T01:46:29.343Z,0
2017-11-16T01:47:29.311Z,0
2017-11-16T01:48:29.024Z,0
2017-11-16T01:49:29.549Z,0
2017-11-16T01:50:29.293Z,0
2017-11-16T01:51:28.983Z,0
2017-11-16T01:52:29.765Z,0
2017-11-16T01:53:28.951Z,0
2017-11-16T01:54:29.471Z,0
2017-11-16T01:55:28.910Z,0
2017-11-16T01:56:29.161Z,0
2017-11-16T01:57:29.343Z,0
2017-11-16T01:58:29.664Z,0
2017-11-16T01:59:29.107Z,0
2017-11-16T02:00:29.139Z,0
2017-11-16T02:01:29.075Z,0
2017-11-16T02:02:29.591Z,0
2017-11-16T02:03:29.037Z,0
2017-11-16T02:04:29.290Z,0
2017-11-16T02:05:28.996Z,0
2017-11-16T02:06:29.246Z,0
2017-11-16T02:07:29.244Z,0
2017-11-16T02:08:28.958Z,0
2017-11-16T02:09:29.200Z,0
2017-11-16T02:10:29.180Z,0
2017-11-16T02:11:28.622Z,0
2017-11-16T02:12:28.884Z,0
2017-11-16T02:13:28.590Z,0
2017-11-16T02:14:28.840Z,0
2017-11-16T02:15:28.825Z,0
2017-11-16T02:16:28.807Z,0
2017-11-16T02:17:28.792Z,0
2017-11-16T02:18:28.769Z,0
2017-11-16T02:19:28.223Z,0
2017-11-16T02:20:28.748Z,0
2017-11-16T02:21:28.995Z,0
2017-11-16T02:22:28.975Z,0
2017-11-16T02:23:28.421Z,0
2017-11-16T02:24:29.209Z,0
2017-11-16T02:25:28.436Z,0
2017-11-16T02:26:28.366Z,0
2017-11-16T02:27:28.616Z,0
2017-11-16T02:28:28.865Z,0
2017-11-16T02:29:28.846Z,0
2017-11-16T02:30:28.836Z,0
2017-11-16T02:31:28.816Z,0
2017-11-16T02:32:27.987Z,0
2017-11-16T02:33:28.514Z,0
2017-11-16T02:34:28.779Z,0
2017-11-16T02:35:28.760Z,0
2017-11-16T02:36:28.820Z,0
2017-11-16T02:37:28.444Z,0
2017-11-16T02:38:28.432Z,0
2017-11-16T02:39:28.420Z,0
2017-11-16T02:40:28.124Z,0
2017-11-16T02:41:28.649Z,0
2017-11-16T02:42:28.641Z,0
2017-11-16T02:43:28.890Z,0
2017-11-16T02:44:28.874Z,0
2017-11-16T02:45:28.316Z,0
2017-11-16T02:46:28.344Z,0
2017-11-16T02:47:28.543Z,0
2017-11-16T02:48:28.811Z,0
2017-11-16T02:49:28.538Z,0
2017-11-16T02:50:28.222Z,0
2017-11-16T02:51:28.482Z,0
2017-11-16T02:52:28.211Z,0
2017-11-16T02:53:28.441Z,0
2017-11-16T02:54:27.889Z,0
2017-11-16T02:55:27.859Z,0
2017-11-16T02:56:28.386Z,0
2017-11-16T02:57:28.371Z,0
2017-11-16T02:58:28.353Z,0
2017-11-16T02:59:28.098Z,0
2017-11-16T03:00:28.056Z,0
2017-11-16T03:01:28.299Z,0
2017-11-16T03:02:27.743Z,0
2017-11-16T03:03:28.286Z,0
2017-11-16T03:04:27.436Z,0
2017-11-16T03:05:28.224Z,0
2017-11-16T03:06:28.480Z,0
2017-11-16T03:07:28.462Z,0
2017-11-16T03:08:27.923Z,0
2017-11-16T03:09:27.895Z,0
2017-11-16T03:10:28.141Z,0
2017-11-16T03:11:28.131Z,0
2017-11-16T03:12:27.567Z,0
2017-11-16T03:13:28.087Z,0
2017-11-16T03:14:27.543Z,0
2017-11-16T03:15:27.511Z,0
2017-11-16T03:16:28.049Z,0
2017-11-16T03:17:27.751Z,0
2017-11-16T03:18:27.194Z,0
2017-11-16T03:19:27.448Z,0
2017-11-16T03:20:27.701Z,0
2017-11-16T03:21:27.692Z,0
2017-11-16T03:22:27.665Z,0
2017-11-16T03:23:27.376Z,0
2017-11-16T03:24:27.363Z,0
2017-11-16T03:25:27.616Z,0
2017-11-16T03:26:27.600Z,0
2017-11-16T03:27:27.580Z,0
2017-11-16T03:28:27.562Z,0
2017-11-16T03:29:27.825Z,0
2017-11-16T03:30:27.535Z,0
2017-11-16T03:31:26.972Z,0
2017-11-16T03:32:27.498Z,0
2017-11-16T03:33:27.222Z,0
2017-11-16T03:34:27.472Z,0
2017-11-16T03:35:27.168Z,0
2017-11-16T03:36:27.425Z,0
2017-11-16T03:37:27.406Z,0
2017-11-16T03:38:27.385Z,0
2017-11-16T03:39:27.371Z,0
2017-11-16T03:40:27.351Z,0
2017-11-16T03:41:27.338Z,0
2017-11-16T03:42:27.376Z,0
2017-11-16T03:43:27.310Z,0
2017-11-16T03:44:27.568Z,0
2017-11-16T03:45:27.547Z,0
2017-11-16T03:46:27.250Z,0
2017-11-16T03:47:27.536Z,0
2017-11-16T03:48:26.952Z,0
2017-11-16T03:49:27.203Z,0
2017-11-16T03:50:26.912Z,0
2017-11-16T03:51:26.894Z,0
2017-11-16T03:52:26.929Z,0
2017-11-16T03:53:27.154Z,0
2017-11-16T03:54:27.647Z,0
2017-11-16T03:55:27.398Z,0
2017-11-16T03:56:27.388Z,0
2017-11-16T03:57:27.532Z,0
2017-11-16T03:58:27.071Z,0
2017-11-16T03:59:27.034Z,0
2017-11-16T04:00:27.289Z,0
2017-11-16T04:01:27.294Z,0
2017-11-16T04:02:27.248Z,0
2017-11-16T04:03:27.224Z,0
2017-11-16T04:04:26.938Z,0
2017-11-16T04:05:27.204Z,0
2017-11-16T04:06:26.634Z,0
2017-11-16T04:07:27.464Z,0
2017-11-16T04:08:27.435Z,0
2017-11-16T04:09:27.422Z,0
2017-11-16T04:10:27.127Z,0
2017-11-16T04:11:27.364Z,0
2017-11-16T04:12:27.085Z,0
2017-11-16T04:13:26.795Z,0
2017-11-16T04:14:27.050Z,0
2017-11-16T04:15:27.023Z,0
2017-11-16T04:16:26.740Z,0
2017-11-16T04:17:26.711Z,0
2017-11-16T04:18:27.002Z,0
2017-11-16T04:19:26.963Z,0
2017-11-16T04:20:26.664Z,0
2017-11-16T04:21:26.113Z,0
2017-11-16T04:22:26.639Z,0
2017-11-16T04:23:26.668Z,0
2017-11-16T04:24:26.593Z,0
2017-11-16T04:25:26.579Z,0
2017-11-16T04:26:26.844Z,0
2017-11-16T04:27:26.830Z,0
2017-11-16T04:28:26.548Z,0
2017-11-16T04:29:26.801Z,0
2017-11-16T04:30:26.489Z,0
2017-11-16T04:31:26.749Z,0
2017-11-16T04:32:26.463Z,0
2017-11-16T04:33:26.763Z,0
2017-11-16T04:34:26.156Z,0
2017-11-16T04:35:26.700Z,0
2017-11-16T04:36:25.857Z,0
2017-11-16T04:37:26.097Z,0
2017-11-16T04:38:26.135Z,0
2017-11-16T04:39:25.793Z,0
2017-11-16T04:40:26.584Z,0
2017-11-16T04:41:26.305Z,0
2017-11-16T04:42:25.747Z,0
2017-11-16T04:43:26.264Z,0
2017-11-16T04:44:26.247Z,0
2017-11-16T04:45:25.967Z,0
2017-11-16T04:46:26.750Z,0
2017-11-16T04:47:26.469Z,0
2017-11-16T04:48:25.909Z,0
2017-11-16T04:49:26.271Z,0
2017-11-16T04:50:26.707Z,0
2017-11-16T04:51:26.399Z,0
2017-11-16T04:52:25.857Z,0
2017-11-16T04:53:26.089Z,0
2017-11-16T04:54:26.085Z,0
2017-11-16T04:55:26.057Z,0
2017-11-16T04:56:26.574Z,0
2017-11-16T04:57:26.028Z,0
2017-11-16T04:58:26.585Z,0
2017-11-16T04:59:26.334Z,0
2017-11-16T05:00:26.238Z,0
2017-11-16T05:01:25.674Z,0
2017-11-16T05:02:25.657Z,0
2017-11-16T05:03:25.909Z,0
2017-11-16T05:04:25.893Z,0
2017-11-16T05:05:26.156Z,0
2017-11-16T05:06:26.123Z,0
2017-11-16T05:07:25.833Z,0
2017-11-16T05:08:25.554Z,0
2017-11-16T05:09:25.585Z,0
2017-11-16T05:10:25.784Z,0
2017-11-16T05:11:25.771Z,0
2017-11-16T05:12:26.291Z,0
2017-11-16T05:13:26.305Z,0
2017-11-16T05:14:25.456Z,0
2017-11-16T05:15:25.982Z,0
2017-11-16T05:16:25.676Z,0
2017-11-16T05:17:25.940Z,0
2017-11-16T05:18:25.914Z,0
2017-11-16T05:19:25.361Z,0
2017-11-16T05:20:25.338Z,0
2017-11-16T05:21:25.863Z,0
2017-11-16T05:22:25.575Z,0
2017-11-16T05:23:25.551Z,0
2017-11-16T05:24:25.809Z,0
2017-11-16T05:25:25.522Z,0
2017-11-16T05:26:24.969Z,0
2017-11-16T05:27:25.761Z,0
2017-11-16T05:28:25.192Z,0
2017-11-16T05:29:25.177Z,0
2017-11-16T05:30:25.167Z,0
2017-11-16T05:31:25.406Z,0
2017-11-16T05:32:25.122Z,0
2017-11-16T05:33:25.118Z,0
2017-11-16T05:34:25.350Z,0
2017-11-16T05:35:25.926Z,0
2017-11-16T05:36:25.589Z,0
2017-11-16T05:37:25.035Z,0
2017-11-16T05:38:25.551Z,0
2017-11-16T05:39:24.993Z,0
2017-11-16T05:40:25.250Z,0
2017-11-16T05:41:25.779Z,0
2017-11-16T05:42:25.212Z,0
2017-11-16T05:43:25.212Z,0
2017-11-16T05:44:25.448Z,0
2017-11-16T05:45:25.764Z,0
2017-11-16T05:46:25.699Z,0
2017-11-16T05:47:25.396Z,0
2017-11-16T05:48:25.104Z,0
2017-11-16T05:49:25.628Z,0
2017-11-16T05:50:25.079Z,0
2017-11-16T05:51:25.320Z,0
2017-11-16T05:52:25.328Z,0
2017-11-16T05:53:24.786Z,0
2017-11-16T05:54:25.262Z,0
2017-11-16T05:55:25.044Z,0
2017-11-16T05:56:24.702Z,0
2017-11-16T05:57:24.910Z,0
2017-11-16T05:58:24.937Z,0
2017-11-16T05:59:24.916Z,0
2017-11-16T06:00:25.172Z,0
2017-11-16T06:01:24.616Z,0
2017-11-16T06:02:24.590Z,0
2017-11-16T06:03:25.107Z,0
2017-11-16T06:04:25.098Z,0
2017-11-16T06:05:25.125Z,0
2017-11-16T06:06:25.066Z,0
2017-11-16T06:07:24.496Z,0
2017-11-16T06:08:24.217Z,0
2017-11-16T06:09:25.016Z,0
2017-11-16T06:10:24.994Z,0
2017-11-16T06:11:24.437Z,0
2017-11-16T06:12:24.688Z,0
2017-11-16T06:13:24.939Z,0
2017-11-16T06:14:24.646Z,0
2017-11-16T06:15:24.957Z,0
2017-11-16T06:16:25.156Z,0
2017-11-16T06:17:24.328Z,0
2017-11-16T06:18:24.589Z,0
2017-11-16T06:19:24.567Z,0
2017-11-16T06:20:25.092Z,0
2017-11-16T06:21:25.079Z,0
2017-11-16T06:22:24.503Z,0
2017-11-16T06:23:23.951Z,0
2017-11-16T06:24:24.665Z,0
2017-11-16T06:25:24.993Z,0
2017-11-16T06:26:24.988Z,0
2017-11-16T06:27:24.424Z,0
2017-11-16T06:28:24.421Z,0
2017-11-16T06:29:24.657Z,0
2017-11-16T06:30:24.115Z,0
2017-11-16T06:31:24.630Z,0
2017-11-16T06:32:24.334Z,0
2017-11-16T06:33:24.620Z,0
2017-11-16T06:34:24.307Z,0
2017-11-16T06:35:24.813Z,0
2017-11-16T06:36:24.592Z,0
2017-11-16T06:37:24.242Z,0
2017-11-16T06:38:23.958Z,0
2017-11-16T06:39:24.757Z,0
2017-11-16T06:40:23.918Z,0
2017-11-16T06:41:24.169Z,0
2017-11-16T06:42:24.432Z,0
2017-11-16T06:43:24.400Z,0
2017-11-16T06:44:24.118Z,0
2017-11-16T06:45:23.838Z,0
2017-11-16T06:46:24.400Z,0
2017-11-16T06:47:24.328Z,0
2017-11-16T06:48:24.048Z,0
2017-11-16T06:49:24.049Z,0
2017-11-16T06:50:24.568Z,0
2017-11-16T06:51:24.263Z,0
2017-11-16T06:52:24.516Z,0
2017-11-16T06:53:23.712Z,0
2017-11-16T06:54:24.208Z,0
2017-11-16T06:55:24.465Z,0
2017-11-16T06:56:23.956Z,0
2017-11-16T06:57:23.620Z,0
2017-11-16T06:58:24.165Z,0
2017-11-16T06:59:23.620Z,0
2017-11-16T07:00:24.376Z,0
2017-11-16T07:01:23.820Z,0
2017-11-16T07:02:23.530Z,0
2017-11-16T07:03:24.061Z,0
2017-11-16T07:04:23.775Z,0
2017-11-16T07:05:23.474Z,0
2017-11-16T07:06:24.326Z,0
2017-11-16T07:07:23.718Z,0
2017-11-16T07:08:23.962Z,0
2017-11-16T07:09:24.227Z,0
2017-11-16T07:10:23.657Z,0
2017-11-16T07:11:23.638Z,5
2017-11-16T07:12:23.619Z,5
2017-11-16T07:13:23.605Z,5
2017-11-16T07:14:23.859Z,5
2017-11-16T07:15:23.588Z,5
2017-11-16T07:16:23.831Z,5
2017-11-16T07:17:24.076Z,5
2017-11-16T07:18:24.055Z,5
2017-11-16T07:19:23.224Z,10
2017-11-16T07:20:23.211Z,10
2017-11-16T07:21:23.737Z,10
2017-11-16T07:22:23.229Z,10
2017-11-16T07:23:23.425Z,10
2017-11-16T07:24:23.414Z,15
2017-11-16T07:25:23.121Z,15
2017-11-16T07:26:23.914Z,15
2017-11-16T07:27:23.636Z,15
2017-11-16T07:28:23.343Z,15
2017-11-16T07:29:23.053Z,20
2017-11-16T07:30:23.587Z,20
2017-11-16T07:31:23.013Z,20
2017-11-16T07:32:22.994Z,25
2017-11-16T07:33:22.980Z,25
2017-11-16T07:34:23.229Z,25
2017-11-16T07:35:22.946Z,30
2017-11-16T07:36:23.206Z,30
2017-11-16T07:37:23.510Z,30
2017-11-16T07:38:23.715Z,30
2017-11-16T07:39:23.150Z,30
2017-11-16T07:40:23.679Z,30
2017-11-16T07:41:23.109Z,30
2017-11-16T07:42:23.093Z,30
2017-11-16T07:43:23.376Z,30
2017-11-16T07:44:23.059Z,30
2017-11-16T07:45:23.313Z,30
2017-11-16T07:46:23.026Z,30
2017-11-16T07:47:23.004Z,30
2017-11-16T07:48:22.443Z,25
2017-11-16T07:49:23.247Z,25
2017-11-16T07:50:23.223Z,30
2017-11-16T07:51:22.935Z,30
2017-11-16T07:52:22.915Z,35
2017-11-16T07:53:22.631Z,35
2017-11-16T07:54:22.879Z,35
2017-11-16T07:55:22.862Z,35
2017-11-16T07:56:23.132Z,35
2017-11-16T07:57:23.583Z,30
2017-11-16T07:58:23.078Z,25
2017-11-16T07:59:22.785Z,20
2017-11-16T08:00:23.045Z,20
2017-11-16T08:01:23.024Z,20
2017-11-16T08:02:22.477Z,20
2017-11-16T08:03:22.452Z,25
2017-11-16T08:04:22.983Z,25
2017-11-16T08:05:22.999Z,30
2017-11-16T08:06:22.952Z,30
2017-11-16T08:07:22.654Z,30
2017-11-16T08:08:22.930Z,30
2017-11-16T08:09:22.888Z,30
2017-11-16T08:10:22.873Z,30
2017-11-16T08:11:22.321Z,30
2017-11-16T08:12:22.883Z,30
2017-11-16T08:13:22.278Z,30
2017-11-16T08:14:21.987Z,30
2017-11-16T08:15:22.815Z,30
2017-11-16T08:16:22.770Z,30
2017-11-16T08:17:22.740Z,25
2017-11-16T08:18:22.458Z,25
2017-11-16T08:19:21.897Z,25
2017-11-16T08:20:22.720Z,25
2017-11-16T08:21:22.410Z,25
2017-11-16T08:22:22.703Z,25
2017-11-16T08:23:22.649Z,25
2017-11-16T08:24:22.624Z,25
2017-11-16T08:25:22.343Z,25
2017-11-16T08:26:22.592Z,25
2017-11-16T08:27:22.621Z,30
2017-11-16T08:28:22.554Z,30
2017-11-16T08:29:22.538Z,30
2017-11-16T08:30:21.977Z,30
2017-11-16T08:31:22.497Z,25
2017-11-16T08:32:21.944Z,25
2017-11-16T08:33:21.655Z,25
2017-11-16T08:34:21.633Z,25
2017-11-16T08:35:22.429Z,25
2017-11-16T08:36:22.701Z,25
2017-11-16T08:37:22.384Z,25
2017-11-16T08:38:22.109Z,20
2017-11-16T08:39:22.105Z,20
2017-11-16T08:40:21.801Z,20
2017-11-16T08:41:22.325Z,20
2017-11-16T08:42:22.036Z,20
2017-11-16T08:43:22.078Z,20
2017-11-16T08:44:22.291Z,20
2017-11-16T08:45:21.974Z,25
2017-11-16T08:46:21.972Z,25
2017-11-16T08:47:21.676Z,25
2017-11-16T08:48:22.479Z,25
2017-11-16T08:49:22.189Z,20
2017-11-16T08:50:21.907Z,25
2017-11-16T08:51:22.141Z,25
2017-11-16T08:52:21.854Z,30
2017-11-16T08:53:21.887Z,30
2017-11-16T08:54:21.547Z,30
2017-11-16T08:55:21.532Z,30
2017-11-16T08:56:21.249Z,35
2017-11-16T08:57:22.326Z,40
2017-11-16T08:58:22.046Z,40
2017-11-16T08:59:22.004Z,40
2017-11-16T09:00:21.997Z,40
2017-11-16T09:01:21.967Z,40
2017-11-16T09:02:21.945Z,40
2017-11-16T09:03:21.709Z,40
2017-11-16T09:04:21.916Z,40
2017-11-16T09:05:21.638Z,40
2017-11-16T09:06:21.617Z,45
2017-11-16T09:07:21.870Z,45
2017-11-16T09:08:21.576Z,50
2017-11-16T09:09:21.289Z,50
2017-11-16T09:10:22.072Z,45
2017-11-16T09:11:20.984Z,45
2017-11-16T09:12:21.230Z,45
2017-11-16T09:13:21.547Z,40
2017-11-16T09:14:21.473Z,40
2017-11-16T09:15:21.998Z,40
2017-11-16T09:16:21.435Z,40
2017-11-16T09:17:21.685Z,40
2017-11-16T09:18:21.393Z,45
2017-11-16T09:19:21.650Z,45
2017-11-16T09:20:21.372Z,45
2017-11-16T09:21:21.077Z,45
2017-11-16T09:22:21.064Z,50
2017-11-16T09:23:21.316Z,60
2017-11-16T09:24:21.315Z,75
2017-11-16T09:25:21.819Z,85
2017-11-16T09:26:21.262Z,95
2017-11-16T09:27:21.243Z,105
2017-11-16T09:28:21.768Z,115
2017-11-16T09:29:20.930Z,125
2017-11-16T09:30:21.493Z,130
2017-11-16T09:31:20.908Z,120
2017-11-16T09:32:21.198Z,110
2017-11-16T09:33:21.760Z,100
2017-11-16T09:34:21.668Z,95
2017-11-16T09:35:20.839Z,95
2017-11-16T09:36:21.086Z,90
2017-11-16T09:37:20.791Z,90
2017-11-16T09:38:21.073Z,85
2017-11-16T09:39:21.301Z,80
2017-11-16T09:40:21.059Z,85
2017-11-16T09:41:21.006Z,90
2017-11-16T09:42:21.257Z,100
2017-11-16T09:43:20.960Z,100
2017-11-16T09:44:21.271Z,105
2017-11-16T09:45:20.932Z,105
2017-11-16T09:46:20.659Z,110
2017-11-16T09:47:21.168Z,110
2017-11-16T09:48:20.604Z,110
2017-11-16T09:49:20.599Z,105
2017-11-16T09:50:20.307Z,105
2017-11-16T09:51:20.840Z,100
2017-11-16T09:52:20.826Z,100
2017-11-16T09:53:20.254Z,100
2017-11-16T09:54:20.844Z,100
2017-11-16T09:55:20.767Z,100
2017-11-16T09:56:20.480Z,100
2017-11-16T09:57:21.417Z,95
2017-11-16T09:58:20.171Z,95
2017-11-16T09:59:20.687Z,95
2017-11-16T10:00:20.937Z,95
2017-11-16T10:01:20.666Z,95
2017-11-16T10:02:21.191Z,100
2017-11-16T10:03:20.626Z,100
2017-11-16T10:04:20.266Z,100
2017-11-16T10:05:20.853Z,105
2017-11-16T10:06:20.838Z,105
2017-11-16T10:07:20.560Z,105
2017-11-16T10:08:20.535Z,105
2017-11-16T10:09:20.825Z,110
2017-11-16T10:10:20.784Z,110
2017-11-16T10:11:20.222Z,115
2017-11-16T10:12:20.741Z,115
2017-11-16T10:13:20.455Z,115
2017-11-16T10:14:20.492Z,120
2017-11-16T10:15:20.431Z,135
2017-11-16T10:16:20.678Z,150
2017-11-16T10:17:20.381Z,160
2017-11-16T10:18:20.665Z,165
2017-11-16T10:19:20.641Z,175
2017-11-16T10:20:20.324Z,200
2017-11-16T10:21:19.780Z,185
2017-11-16T10:22:20.037Z,180
2017-11-16T10:23:20.824Z,170
2017-11-16T10:24:20.047Z,170
2017-11-16T10:25:20.524Z,165
2017-11-16T10:26:19.960Z,155
2017-11-16T10:27:20.488Z,145
2017-11-16T10:28:19.928Z,135
2017-11-16T10:29:20.180Z,130
2017-11-16T10:30:20.105Z,130
2017-11-16T10:31:20.160Z,130
2017-11-16T10:32:20.680Z,130
2017-11-16T10:33:20.386Z,130
2017-11-16T10:34:19.829Z,130
2017-11-16T10:35:20.647Z,130
2017-11-16T10:36:20.546Z,130
2017-11-16T10:37:20.593Z,125
2017-11-16T10:38:20.033Z,125
2017-11-16T10:39:20.297Z,125
2017-11-16T10:40:20.060Z,125
2017-11-16T10:41:19.993Z,125
2017-11-16T10:42:20.508Z,125
2017-11-16T10:43:19.955Z,130
2017-11-16T10:44:19.674Z,135
2017-11-16T10:45:19.946Z,140
2017-11-16T10:46:19.633Z,155
2017-11-16T10:47:19.903Z,160
2017-11-16T10:48:20.414Z,160
2017-11-16T10:49:19.599Z,160
2017-11-16T10:50:20.115Z,155
2017-11-16T10:51:20.087Z,160
2017-11-16T10:52:19.799Z,165
2017-11-16T10:53:19.519Z,175
2017-11-16T10:54:20.046Z,190
2017-11-16T10:55:19.811Z,190
2017-11-16T10:56:19.475Z,190
2017-11-16T10:57:19.458Z,185
2017-11-16T10:58:19.455Z,175
2017-11-16T10:59:19.702Z,165
2017-11-16T11:00:19.460Z,160
2017-11-16T11:01:19.404Z,155
2017-11-16T11:02:19.369Z,155
2017-11-16T11:03:19.890Z,150
2017-11-16T11:04:20.167Z,145
2017-11-16T11:05:19.603Z,140
2017-11-16T11:06:19.309Z,130
2017-11-16T11:07:19.564Z,125
2017-11-16T11:08:19.840Z,115
2017-11-16T11:09:19.537Z,115
2017-11-16T11:10:19.303Z,115
2017-11-16T11:11:18.951Z,120
2017-11-16T11:12:20.027Z,125
2017-11-16T11:13:19.464Z,125
2017-11-16T11:14:19.174Z,115
2017-11-16T11:15:19.209Z,105
2017-11-16T11:16:19.423Z,100
2017-11-16T11:17:19.690Z,95
2017-11-16T11:18:19.658Z,95
2017-11-16T11:19:19.368Z,90
2017-11-16T11:20:19.385Z,90
2017-11-16T11:21:19.634Z,85
2017-11-16T11:22:19.330Z,80
2017-11-16T11:23:19.846Z,80
2017-11-16T11:24:19.292Z,80
2017-11-16T11:25:19.329Z,85
2017-11-16T11:26:19.248Z,90
2017-11-16T11:27:19.232Z,90
2017-11-16T11:28:19.228Z,90
2017-11-16T11:29:19.758Z,85
2017-11-16T11:30:19.189Z,90
2017-11-16T11:31:19.186Z,95
2017-11-16T11:32:19.437Z,100
2017-11-16T11:33:19.141Z,100
2017-11-16T11:34:18.860Z,100
2017-11-16T11:35:19.111Z,100
2017-11-16T11:36:19.093Z,100
2017-11-16T11:37:19.629Z,100
2017-11-16T11:38:19.336Z,100
2017-11-16T11:39:18.776Z,100
2017-11-16T11:40:19.038Z,100
2017-11-16T11:41:19.334Z,105
2017-11-16T11:42:18.721Z,105
2017-11-16T11:43:18.697Z,105
2017-11-16T11:44:18.954Z,100
2017-11-16T11:45:18.956Z,95
2017-11-16T11:46:18.926Z,95
2017-11-16T11:47:18.910Z,95
2017-11-16T11:48:19.164Z,90
2017-11-16T11:49:18.615Z,85
2017-11-16T11:50:18.865Z,85
2017-11-16T11:51:18.628Z,80
2017-11-16T11:52:18.553Z,85
2017-11-16T11:53:18.814Z,85
2017-11-16T11:54:18.794Z,85
2017-11-16T11:55:19.057Z,85
2017-11-16T11:56:18.815Z,90
2017-11-16T11:57:19.012Z,90
2017-11-16T11:58:19.474Z,90
2017-11-16T11:59:18.984Z,95
2017-11-16T12:00:19.049Z,100
2017-11-16T12:01:18.945Z,115
2017-11-16T12:02:18.674Z,120
2017-11-16T12:03:18.917Z,115
2017-11-16T12:04:18.631Z,110
2017-11-16T12:05:18.878Z,105
2017-11-16T12:06:18.656Z,115
2017-11-16T12:07:18.849Z,115
2017-11-16T12:08:18.854Z,120
2017-11-16T12:09:18.570Z,120
2017-11-16T12:10:18.258Z,125
2017-11-16T12:11:18.785Z,130
2017-11-16T12:12:18.776Z,140
2017-11-16T12:13:17.944Z,135
2017-11-16T12:14:18.466Z,120
2017-11-16T12:15:18.444Z,105
2017-11-16T12:16:18.215Z,95
2017-11-16T12:17:18.429Z,90
2017-11-16T12:18:18.970Z,90
2017-11-16T12:19:18.923Z,95
2017-11-16T12:20:18.371Z,95
2017-11-16T12:21:18.350Z,95
2017-11-16T12:22:18.070Z,90
2017-11-16T12:23:18.860Z,90
2017-11-16T12:24:17.764Z,85
2017-11-16T12:25:17.742Z,85
2017-11-16T12:26:18.873Z,85
2017-11-16T12:27:18.793Z,85
2017-11-16T12:28:18.235Z,85
2017-11-16T12:29:18.505Z,80
2017-11-16T12:30:18.209Z,75
2017-11-16T12:31:18.188Z,75
2017-11-16T12:32:18.717Z,70
2017-11-16T12:33:18.427Z,65
2017-11-16T12:34:17.870Z,60
2017-11-16T12:35:18.135Z,60
2017-11-16T12:36:18.640Z,60
2017-11-16T12:37:18.632Z,60
2017-11-16T12:38:17.810Z,60
2017-11-16T12:39:18.337Z,60
2017-11-16T12:40:18.039Z,65
2017-11-16T12:41:18.313Z,65
2017-11-16T12:42:18.163Z,60
2017-11-16T12:43:17.727Z,60
2017-11-16T12:44:17.705Z,60
2017-11-16T12:45:17.978Z,65
2017-11-16T12:46:17.414Z,70
2017-11-16T12:47:17.703Z,70
2017-11-16T12:48:17.912Z,70
2017-11-16T12:49:18.478Z,70
2017-11-16T12:50:18.426Z,70
2017-11-16T12:51:18.405Z,75
2017-11-16T12:52:17.844Z,80
2017-11-16T12:53:18.101Z,80
2017-11-16T12:54:17.822Z,90
2017-11-16T12:55:17.795Z,85
2017-11-16T12:56:18.046Z,90
2017-11-16T12:57:17.817Z,100
2017-11-16T12:58:17.486Z,115
2017-11-16T12:59:17.731Z,120
2017-11-16T13:00:17.448Z,125
2017-11-16T13:01:17.974Z,120
2017-11-16T13:02:17.956Z,120
2017-11-16T13:03:17.932Z,115
2017-11-16T13:04:17.652Z,105
2017-11-16T13:05:18.166Z,100
2017-11-16T13:06:18.169Z,95
2017-11-16T13:07:18.188Z,90
2017-11-16T13:08:17.581Z,85
2017-11-16T13:09:17.867Z,80
2017-11-16T13:10:17.819Z,75
2017-11-16T13:11:17.526Z,75
2017-11-16T13:12:18.056Z,75
2017-11-16T13:13:17.500Z,75
2017-11-16T13:14:17.509Z,80
2017-11-16T13:15:16.924Z,80
2017-11-16T13:16:17.474Z,80
2017-11-16T13:17:17.990Z,75
2017-11-16T13:18:17.201Z,70
2017-11-16T13:19:17.690Z,65
2017-11-16T13:20:16.841Z,60
2017-11-16T13:21:17.650Z,60
2017-11-16T13:22:17.074Z,60
2017-11-16T13:23:17.387Z,65
2017-11-16T13:24:17.328Z,70
2017-11-16T13:25:17.323Z,65
2017-11-16T13:26:17.549Z,70
2017-11-16T13:27:17.275Z,60
2017-11-16T13:28:17.987Z,55
2017-11-16T13:29:17.781Z,50
2017-11-16T13:30:17.490Z,50
2017-11-16T13:31:17.474Z,50
2017-11-16T13:32:17.457Z,45
2017-11-16T13:33:16.913Z,45
2017-11-16T13:34:17.154Z,40
2017-11-16T13:35:17.405Z,40
2017-11-16T13:36:16.869Z,45
2017-11-16T13:37:17.374Z,45
2017-11-16T13:38:17.088Z,45
2017-11-16T13:39:17.069Z,45
2017-11-16T13:40:17.607Z,40
2017-11-16T13:41:17.036Z,40
2017-11-16T13:42:17.326Z,40
2017-11-16T13:43:17.337Z,35
2017-11-16T13:44:17.265Z,35
2017-11-16T13:45:17.269Z,35
2017-11-16T13:46:16.957Z,35
2017-11-16T13:47:17.238Z,35
2017-11-16T13:48:17.518Z,35
2017-11-16T13:49:16.899Z,35
2017-11-16T13:50:17.155Z,35
2017-11-16T13:51:16.872Z,30
2017-11-16T13:52:17.127Z,30
2017-11-16T13:53:16.837Z,35
2017-11-16T13:54:16.820Z,35
2017-11-16T13:55:16.803Z,40
2017-11-16T13:56:17.053Z,45
2017-11-16T13:57:16.233Z,50
2017-11-16T13:58:17.222Z,50
2017-11-16T13:59:16.222Z,55
2017-11-16T14:00:16.450Z,65
2017-11-16T14:01:16.708Z,70
2017-11-16T14:02:16.414Z,70
2017-11-16T14:03:16.953Z,70
2017-11-16T14:04:16.935Z,70
2017-11-16T14:05:16.940Z,70
2017-11-16T14:06:17.166Z,65
2017-11-16T14:07:16.885Z,65
2017-11-16T14:08:16.867Z,65
2017-11-16T14:09:16.630Z,65
2017-11-16T14:10:16.821Z,65
2017-11-16T14:11:16.548Z,60
2017-11-16T14:12:16.795Z,55
2017-11-16T14:13:16.784Z,55
2017-11-16T14:14:16.753Z,55
2017-11-16T14:15:16.477Z,55
2017-11-16T14:16:16.200Z,50
2017-11-16T14:17:16.982Z,45
2017-11-16T14:18:16.965Z,45
2017-11-16T14:19:16.726Z,50
2017-11-16T14:20:16.921Z,50
2017-11-16T14:21:16.370Z,50
2017-11-16T14:22:16.086Z,50
2017-11-16T14:23:16.066Z,50
2017-11-16T14:24:16.588Z,50
2017-11-16T14:25:16.299Z,50
2017-11-16T14:26:16.845Z,45